sensor_id;sensor_type;location;lat;lon;timestamp;temperature;humidity
7686;DHT22;3885;51.474;-2.576;2023-02-24T00:00:05;-0.30;99.90
7686;DHT22;3885;51.474;-2.576;2023-02-24T00:02:57;-0.40;99.90
7686;DHT22;3885;51.474;-2.576;2023-02-24T00:05:23;-0.30;99.90
7686;DHT22;3885;51.474;-2.576;2023-02-24T00:10:18;-0.40;99.90
7686;DHT22;3885;51.474;-2.576;2023-02-24T00:12:47;-0.40;99.90
7686;DHT22;3885;51.474;-2.576;2023-02-24T00:15:15;-0.40;99.90
7686;DHT22;3885;51.474;-2.576;2023-02-24T00:17:42;-0.40;99.90
7686;DHT22;3885;51.474;-2.576;2023-02-24T00:20:10;-0.40;99.90
7686;DHT22;3885;51.474;-2.576;2023-02-24T00:22:38;-0.40;99.90
7686;DHT22;3885;51.474;-2.576;2023-02-24T00:25:05;-0.40;99.90
7686;DHT22;3885;51.474;-2.576;2023-02-24T00:32:30;-0.40;99.90
7686;DHT22;3885;51.474;-2.576;2023-02-24T00:34:57;-0.40;99.90
7686;DHT22;3885;51.474;-2.576;2023-02-24T00:42:23;-0.50;99.90
7686;DHT22;3885;51.474;-2.576;2023-02-24T00:44:50;-0.50;99.90
7686;DHT22;3885;51.474;-2.576;2023-02-24T00:47:20;-0.50;99.90
7686;DHT22;3885;51.474;-2.576;2023-02-24T00:49:48;-0.50;99.90
7686;DHT22;3885;51.474;-2.576;2023-02-24T00:52:18;-0.50;99.90
7686;DHT22;3885;51.474;-2.576;2023-02-24T00:54:47;-0.50;99.90
7686;DHT22;3885;51.474;-2.576;2023-02-24T00:57:14;-0.50;99.90
7686;DHT22;3885;51.474;-2.576;2023-02-24T00:59:43;-0.50;99.90
7686;DHT22;3885;51.474;-2.576;2023-02-24T01:02:12;-0.50;99.90
7686;DHT22;3885;51.474;-2.576;2023-02-24T01:04:41;-0.50;99.90
7686;DHT22;3885;51.474;-2.576;2023-02-24T01:09:37;-0.60;99.90
7686;DHT22;3885;51.474;-2.576;2023-02-24T01:12:06;-0.60;99.90
7686;DHT22;3885;51.474;-2.576;2023-02-24T01:14:51;-0.60;99.90
7686;DHT22;3885;51.474;-2.576;2023-02-24T01:19:48;-0.50;99.90
7686;DHT22;3885;51.474;-2.576;2023-02-24T01:22:16;-0.50;99.90
7686;DHT22;3885;51.474;-2.576;2023-02-24T01:24:44;-0.50;99.90
7686;DHT22;3885;51.474;-2.576;2023-02-24T01:27:12;-0.50;99.90
7686;DHT22;3885;51.474;-2.576;2023-02-24T01:29:40;-0.50;99.90
7686;DHT22;3885;51.474;-2.576;2023-02-24T01:34:41;-0.50;99.90
7686;DHT22;3885;51.474;-2.576;2023-02-24T01:42:12;-0.50;99.90
7686;DHT22;3885;51.474;-2.576;2023-02-24T01:52:42;-0.40;99.90
7686;DHT22;3885;51.474;-2.576;2023-02-24T01:55:15;-0.40;99.90
7686;DHT22;3885;51.474;-2.576;2023-02-24T01:57:45;-0.30;99.90
7686;DHT22;3885;51.474;-2.576;2023-02-24T02:00:15;-0.30;99.90
7686;DHT22;3885;51.474;-2.576;2023-02-24T02:02:59;-0.20;99.90
7686;DHT22;3885;51.474;-2.576;2023-02-24T02:05:28;-0.20;99.90
7686;DHT22;3885;51.474;-2.576;2023-02-24T02:07:57;-0.10;99.90
7686;DHT22;3885;51.474;-2.576;2023-02-24T02:10:25;-0.10;99.90
7686;DHT22;3885;51.474;-2.576;2023-02-24T02:12:54;0.00;99.90
7686;DHT22;3885;51.474;-2.576;2023-02-24T02:15:21;0.00;99.90
7686;DHT22;3885;51.474;-2.576;2023-02-24T02:17:55;0.10;99.90
7686;DHT22;3885;51.474;-2.576;2023-02-24T02:23:48;0.10;99.90
7686;DHT22;3885;51.474;-2.576;2023-02-24T02:35:00;0.30;99.90
7686;DHT22;3885;51.474;-2.576;2023-02-24T02:37:35;0.30;99.90
7686;DHT22;3885;51.474;-2.576;2023-02-24T02:40:08;0.40;99.90
7686;DHT22;3885;51.474;-2.576;2023-02-24T02:42:47;0.50;99.90
7686;DHT22;3885;51.474;-2.576;2023-02-24T02:45:23;0.60;99.90
7686;DHT22;3885;51.474;-2.576;2023-02-24T02:47:56;0.60;99.90
7686;DHT22;3885;51.474;-2.576;2023-02-24T02:50:28;0.70;99.90
7686;DHT22;3885;51.474;-2.576;2023-02-24T02:53:02;0.70;99.90
7686;DHT22;3885;51.474;-2.576;2023-02-24T02:55:36;0.80;99.90
7686;DHT22;3885;51.474;-2.576;2023-02-24T02:58:06;0.80;99.90
7686;DHT22;3885;51.474;-2.576;2023-02-24T03:03:10;1.00;99.90
7686;DHT22;3885;51.474;-2.576;2023-02-24T03:08:13;1.10;99.90
7686;DHT22;3885;51.474;-2.576;2023-02-24T03:10:42;1.10;99.90
7686;DHT22;3885;51.474;-2.576;2023-02-24T03:13:18;1.20;99.90
7686;DHT22;3885;51.474;-2.576;2023-02-24T03:15:48;1.20;99.90
7686;DHT22;3885;51.474;-2.576;2023-02-24T03:18:19;1.20;99.90
7686;DHT22;3885;51.474;-2.576;2023-02-24T03:20:59;1.30;99.90
7686;DHT22;3885;51.474;-2.576;2023-02-24T03:23:34;1.40;99.90
7686;DHT22;3885;51.474;-2.576;2023-02-24T03:26:09;1.40;99.90
7686;DHT22;3885;51.474;-2.576;2023-02-24T03:28:50;1.50;99.90
7686;DHT22;3885;51.474;-2.576;2023-02-24T03:31:22;1.40;99.90
7686;DHT22;3885;51.474;-2.576;2023-02-24T03:33:58;1.50;99.90
7686;DHT22;3885;51.474;-2.576;2023-02-24T03:36:30;1.60;99.90
7686;DHT22;3885;51.474;-2.576;2023-02-24T03:38:57;1.60;99.90
7686;DHT22;3885;51.474;-2.576;2023-02-24T03:41:30;1.60;99.90
7686;DHT22;3885;51.474;-2.576;2023-02-24T03:44:02;1.70;99.90
7686;DHT22;3885;51.474;-2.576;2023-02-24T03:46:31;1.70;99.90
7686;DHT22;3885;51.474;-2.576;2023-02-24T03:49:03;1.70;99.90
7686;DHT22;3885;51.474;-2.576;2023-02-24T03:51:34;1.80;99.90
7686;DHT22;3885;51.474;-2.576;2023-02-24T03:54:10;1.80;99.90
7686;DHT22;3885;51.474;-2.576;2023-02-24T03:56:46;1.80;99.90
7686;DHT22;3885;51.474;-2.576;2023-02-24T04:01:51;1.80;99.90
7686;DHT22;3885;51.474;-2.576;2023-02-24T04:04:27;1.80;99.90
7686;DHT22;3885;51.474;-2.576;2023-02-24T04:07:01;1.90;99.90
7686;DHT22;3885;51.474;-2.576;2023-02-24T04:09:38;1.90;99.90
7686;DHT22;3885;51.474;-2.576;2023-02-24T04:12:08;2.00;99.90
7686;DHT22;3885;51.474;-2.576;2023-02-24T04:14:47;2.10;99.90
7686;DHT22;3885;51.474;-2.576;2023-02-24T04:17:19;2.00;99.90
7686;DHT22;3885;51.474;-2.576;2023-02-24T04:22:20;2.00;99.90
7686;DHT22;3885;51.474;-2.576;2023-02-24T04:24:52;2.10;99.90
7686;DHT22;3885;51.474;-2.576;2023-02-24T04:27:21;2.10;99.90
7686;DHT22;3885;51.474;-2.576;2023-02-24T04:29:52;2.10;99.90
7686;DHT22;3885;51.474;-2.576;2023-02-24T04:32:22;2.20;99.90
7686;DHT22;3885;51.474;-2.576;2023-02-24T04:34:50;2.20;99.90
7686;DHT22;3885;51.474;-2.576;2023-02-24T04:49:39;2.20;99.90
7686;DHT22;3885;51.474;-2.576;2023-02-24T04:57:03;2.20;99.90
7686;DHT22;3885;51.474;-2.576;2023-02-24T04:59:31;2.20;99.90
7686;DHT22;3885;51.474;-2.576;2023-02-24T05:01:58;2.30;99.90
7686;DHT22;3885;51.474;-2.576;2023-02-24T05:04:26;2.30;99.90
7686;DHT22;3885;51.474;-2.576;2023-02-24T05:06:55;2.30;99.90
7686;DHT22;3885;51.474;-2.576;2023-02-24T05:11:56;2.20;99.90
7686;DHT22;3885;51.474;-2.576;2023-02-24T05:14:23;2.20;99.90
7686;DHT22;3885;51.474;-2.576;2023-02-24T05:16:51;2.20;99.90
7686;DHT22;3885;51.474;-2.576;2023-02-24T05:24:42;2.20;99.90
7686;DHT22;3885;51.474;-2.576;2023-02-24T05:27:11;2.20;99.90
7686;DHT22;3885;51.474;-2.576;2023-02-24T05:29:40;2.20;99.90
7686;DHT22;3885;51.474;-2.576;2023-02-24T05:32:08;2.20;99.90
7686;DHT22;3885;51.474;-2.576;2023-02-24T05:34:35;2.20;99.90
7686;DHT22;3885;51.474;-2.576;2023-02-24T05:37:03;2.20;99.90
7686;DHT22;3885;51.474;-2.576;2023-02-24T05:39:35;2.20;99.90
7686;DHT22;3885;51.474;-2.576;2023-02-24T05:42:02;2.20;99.90
7686;DHT22;3885;51.474;-2.576;2023-02-24T05:44:33;2.20;99.90
7686;DHT22;3885;51.474;-2.576;2023-02-24T05:47:01;2.20;99.90
7686;DHT22;3885;51.474;-2.576;2023-02-24T05:49:31;2.30;99.90
7686;DHT22;3885;51.474;-2.576;2023-02-24T05:52:00;2.20;99.90
7686;DHT22;3885;51.474;-2.576;2023-02-24T05:54:33;2.20;99.90
7686;DHT22;3885;51.474;-2.576;2023-02-24T06:02:01;2.10;99.90
7686;DHT22;3885;51.474;-2.576;2023-02-24T06:04:31;2.10;99.90
7686;DHT22;3885;51.474;-2.576;2023-02-24T06:07:18;2.10;99.90
7686;DHT22;3885;51.474;-2.576;2023-02-24T06:09:45;2.10;99.90
7686;DHT22;3885;51.474;-2.576;2023-02-24T06:12:15;2.10;99.90
7686;DHT22;3885;51.474;-2.576;2023-02-24T06:17:11;2.00;99.90
7686;DHT22;3885;51.474;-2.576;2023-02-24T06:19:41;2.00;99.90
7686;DHT22;3885;51.474;-2.576;2023-02-24T06:22:11;2.00;99.90
7686;DHT22;3885;51.474;-2.576;2023-02-24T06:24:38;2.00;99.90
7686;DHT22;3885;51.474;-2.576;2023-02-24T06:27:09;1.90;99.90
7686;DHT22;3885;51.474;-2.576;2023-02-24T06:29:42;2.00;99.90
7686;DHT22;3885;51.474;-2.576;2023-02-24T06:32:10;2.00;99.90
7686;DHT22;3885;51.474;-2.576;2023-02-24T06:34:38;2.00;99.90
7686;DHT22;3885;51.474;-2.576;2023-02-24T06:37:06;2.00;99.90
7686;DHT22;3885;51.474;-2.576;2023-02-24T06:39:33;2.00;99.90
7686;DHT22;3885;51.474;-2.576;2023-02-24T06:44:29;1.90;99.90
7686;DHT22;3885;51.474;-2.576;2023-02-24T06:46:56;1.90;99.90
7686;DHT22;3885;51.474;-2.576;2023-02-24T06:49:25;1.80;99.90
7686;DHT22;3885;51.474;-2.576;2023-02-24T06:51:52;1.80;99.90
7686;DHT22;3885;51.474;-2.576;2023-02-24T06:59:15;1.80;99.90
7686;DHT22;3885;51.474;-2.576;2023-02-24T07:01:46;1.80;99.90
7686;DHT22;3885;51.474;-2.576;2023-02-24T07:04:15;1.80;99.90
7686;DHT22;3885;51.474;-2.576;2023-02-24T07:06:49;1.80;99.90
7686;DHT22;3885;51.474;-2.576;2023-02-24T07:09:18;1.80;99.90
7686;DHT22;3885;51.474;-2.576;2023-02-24T07:11:47;1.80;99.90
7686;DHT22;3885;51.474;-2.576;2023-02-24T07:14:17;1.80;99.90
7686;DHT22;3885;51.474;-2.576;2023-02-24T07:16:45;1.90;99.90
7686;DHT22;3885;51.474;-2.576;2023-02-24T07:19:15;2.00;99.90
7686;DHT22;3885;51.474;-2.576;2023-02-24T07:21:43;2.00;99.90
7686;DHT22;3885;51.474;-2.576;2023-02-24T07:29:21;2.00;99.90
7686;DHT22;3885;51.474;-2.576;2023-02-24T07:31:48;2.00;99.90
7686;DHT22;3885;51.474;-2.576;2023-02-24T07:36:49;2.10;99.90
7686;DHT22;3885;51.474;-2.576;2023-02-24T07:39:18;2.10;99.90
7686;DHT22;3885;51.474;-2.576;2023-02-24T07:41:47;2.10;99.90
7686;DHT22;3885;51.474;-2.576;2023-02-24T07:44:15;2.20;99.90
7686;DHT22;3885;51.474;-2.576;2023-02-24T07:46:43;2.30;99.90
7686;DHT22;3885;51.474;-2.576;2023-02-24T07:49:12;2.50;99.90
7686;DHT22;3885;51.474;-2.576;2023-02-24T07:51:40;2.70;99.90
7686;DHT22;3885;51.474;-2.576;2023-02-24T07:54:09;2.80;99.90
7686;DHT22;3885;51.474;-2.576;2023-02-24T07:56:38;2.90;99.90
7686;DHT22;3885;51.474;-2.576;2023-02-24T08:04:16;3.50;99.90
7686;DHT22;3885;51.474;-2.576;2023-02-24T08:06:43;3.70;99.90
7686;DHT22;3885;51.474;-2.576;2023-02-24T08:09:12;3.90;99.90
7686;DHT22;3885;51.474;-2.576;2023-02-24T08:11:46;4.00;99.90
7686;DHT22;3885;51.474;-2.576;2023-02-24T08:14:17;4.10;99.90
7686;DHT22;3885;51.474;-2.576;2023-02-24T08:16:45;4.20;99.90
7686;DHT22;3885;51.474;-2.576;2023-02-24T08:24:16;4.80;99.90
7686;DHT22;3885;51.474;-2.576;2023-02-24T08:26:47;5.00;99.90
7686;DHT22;3885;51.474;-2.576;2023-02-24T08:31:56;5.20;99.90
7686;DHT22;3885;51.474;-2.576;2023-02-24T08:34:23;5.30;99.90
7686;DHT22;3885;51.474;-2.576;2023-02-24T08:36:56;5.40;99.90
7686;DHT22;3885;51.474;-2.576;2023-02-24T08:39:23;5.50;99.90
7686;DHT22;3885;51.474;-2.576;2023-02-24T08:41:56;5.60;99.90
7686;DHT22;3885;51.474;-2.576;2023-02-24T08:44:24;5.70;99.90
7686;DHT22;3885;51.474;-2.576;2023-02-24T08:46:52;5.80;99.90
7686;DHT22;3885;51.474;-2.576;2023-02-24T08:49:20;5.90;99.90
7686;DHT22;3885;51.474;-2.576;2023-02-24T08:51:50;6.00;99.90
7686;DHT22;3885;51.474;-2.576;2023-02-24T08:59:23;6.40;99.90
7686;DHT22;3885;51.474;-2.576;2023-02-24T09:02:05;6.50;99.90
7686;DHT22;3885;51.474;-2.576;2023-02-24T09:04:50;6.60;99.90
7686;DHT22;3885;51.474;-2.576;2023-02-24T09:09:46;6.70;99.90
7686;DHT22;3885;51.474;-2.576;2023-02-24T09:12:14;6.70;99.90
7686;DHT22;3885;51.474;-2.576;2023-02-24T09:14:52;6.90;99.90
7686;DHT22;3885;51.474;-2.576;2023-02-24T09:17:22;6.90;99.90
7686;DHT22;3885;51.474;-2.576;2023-02-24T09:20:06;7.00;99.90
7686;DHT22;3885;51.474;-2.576;2023-02-24T09:22:51;7.00;99.90
7686;DHT22;3885;51.474;-2.576;2023-02-24T09:25:29;7.10;99.90
7686;DHT22;3885;51.474;-2.576;2023-02-24T09:28:11;7.10;99.90
7686;DHT22;3885;51.474;-2.576;2023-02-24T09:30:44;7.20;99.90
7686;DHT22;3885;51.474;-2.576;2023-02-24T09:33:20;7.20;99.90
7686;DHT22;3885;51.474;-2.576;2023-02-24T09:35:50;7.30;99.90
7686;DHT22;3885;51.474;-2.576;2023-02-24T09:38:19;7.40;99.90
7686;DHT22;3885;51.474;-2.576;2023-02-24T09:43:34;7.50;99.90
7686;DHT22;3885;51.474;-2.576;2023-02-24T09:46:12;7.60;99.90
7686;DHT22;3885;51.474;-2.576;2023-02-24T09:48:47;7.60;99.90
7686;DHT22;3885;51.474;-2.576;2023-02-24T09:51:19;7.70;99.90
7686;DHT22;3885;51.474;-2.576;2023-02-24T09:56:26;7.80;99.90
7686;DHT22;3885;51.474;-2.576;2023-02-24T09:58:59;8.00;99.90
7686;DHT22;3885;51.474;-2.576;2023-02-24T10:01:44;8.00;99.90
7686;DHT22;3885;51.474;-2.576;2023-02-24T10:04:27;8.00;99.90
7686;DHT22;3885;51.474;-2.576;2023-02-24T10:07:04;8.00;99.90
7686;DHT22;3885;51.474;-2.576;2023-02-24T10:09:34;8.10;99.90
7686;DHT22;3885;51.474;-2.576;2023-02-24T10:12:06;8.10;99.90
7686;DHT22;3885;51.474;-2.576;2023-02-24T10:14:42;8.20;99.90
7686;DHT22;3885;51.474;-2.576;2023-02-24T10:17:18;8.30;99.90
7686;DHT22;3885;51.474;-2.576;2023-02-24T10:19:49;8.40;99.90
7686;DHT22;3885;51.474;-2.576;2023-02-24T10:22:24;8.60;99.90
7686;DHT22;3885;51.474;-2.576;2023-02-24T10:25:02;8.90;99.90
7686;DHT22;3885;51.474;-2.576;2023-02-24T10:27:44;9.30;99.90
7686;DHT22;3885;51.474;-2.576;2023-02-24T10:30:36;9.60;99.90
7686;DHT22;3885;51.474;-2.576;2023-02-24T10:33:18;9.60;99.90
7686;DHT22;3885;51.474;-2.576;2023-02-24T10:35:50;9.60;99.90
7686;DHT22;3885;51.474;-2.576;2023-02-24T10:38:19;9.50;99.90
7686;DHT22;3885;51.474;-2.576;2023-02-24T10:40:52;9.30;99.90
7686;DHT22;3885;51.474;-2.576;2023-02-24T10:43:25;9.50;99.90
7686;DHT22;3885;51.474;-2.576;2023-02-24T10:45:57;9.50;99.90
7686;DHT22;3885;51.474;-2.576;2023-02-24T10:48:33;9.60;99.90
7686;DHT22;3885;51.474;-2.576;2023-02-24T10:51:11;9.60;99.90
7686;DHT22;3885;51.474;-2.576;2023-02-24T10:53:46;9.60;99.90
7686;DHT22;3885;51.474;-2.576;2023-02-24T10:56:18;9.70;99.90
7686;DHT22;3885;51.474;-2.576;2023-02-24T10:59:09;9.70;99.90
7686;DHT22;3885;51.474;-2.576;2023-02-24T11:04:52;9.90;99.90
7686;DHT22;3885;51.474;-2.576;2023-02-24T11:07:29;10.00;99.90
7686;DHT22;3885;51.474;-2.576;2023-02-24T11:10:11;10.00;99.90
7686;DHT22;3885;51.474;-2.576;2023-02-24T11:12:43;9.90;99.90
7686;DHT22;3885;51.474;-2.576;2023-02-24T11:15:31;9.60;99.90
7686;DHT22;3885;51.474;-2.576;2023-02-24T11:18:19;9.70;99.90
7686;DHT22;3885;51.474;-2.576;2023-02-24T11:20:51;9.70;99.90
7686;DHT22;3885;51.474;-2.576;2023-02-24T11:23:21;9.80;99.90
7686;DHT22;3885;51.474;-2.576;2023-02-24T11:36:03;10.00;99.90
7686;DHT22;3885;51.474;-2.576;2023-02-24T11:41:16;10.00;99.90
7686;DHT22;3885;51.474;-2.576;2023-02-24T11:43:51;10.00;99.90
7686;DHT22;3885;51.474;-2.576;2023-02-24T11:46:22;10.00;99.90
7686;DHT22;3885;51.474;-2.576;2023-02-24T11:48:54;9.90;99.90
7686;DHT22;3885;51.474;-2.576;2023-02-24T11:51:27;9.90;99.90
7686;DHT22;3885;51.474;-2.576;2023-02-24T11:56:26;9.90;99.90
7686;DHT22;3885;51.474;-2.576;2023-02-24T11:58:58;9.90;99.90
7686;DHT22;3885;51.474;-2.576;2023-02-24T12:01:30;9.90;99.90
7686;DHT22;3885;51.474;-2.576;2023-02-24T12:06:36;9.90;99.90
7686;DHT22;3885;51.474;-2.576;2023-02-24T12:09:10;10.00;99.90
7686;DHT22;3885;51.474;-2.576;2023-02-24T12:11:44;10.00;99.90
7686;DHT22;3885;51.474;-2.576;2023-02-24T12:14:21;10.10;99.90
7686;DHT22;3885;51.474;-2.576;2023-02-24T12:16:55;10.20;99.90
7686;DHT22;3885;51.474;-2.576;2023-02-24T12:22:00;10.50;99.90
7686;DHT22;3885;51.474;-2.576;2023-02-24T12:24:30;10.50;99.90
7686;DHT22;3885;51.474;-2.576;2023-02-24T12:29:46;10.70;99.90
7686;DHT22;3885;51.474;-2.576;2023-02-24T12:32:26;10.80;99.90
7686;DHT22;3885;51.474;-2.576;2023-02-24T12:35:02;10.90;99.90
7686;DHT22;3885;51.474;-2.576;2023-02-24T12:37:49;10.90;99.90
7686;DHT22;3885;51.474;-2.576;2023-02-24T12:40:28;11.00;99.90
7686;DHT22;3885;51.474;-2.576;2023-02-24T12:43:00;11.00;99.90
7686;DHT22;3885;51.474;-2.576;2023-02-24T12:45:39;11.10;99.90
7686;DHT22;3885;51.474;-2.576;2023-02-24T12:48:18;11.10;99.90
7686;DHT22;3885;51.474;-2.576;2023-02-24T12:53:32;11.10;99.90
7686;DHT22;3885;51.474;-2.576;2023-02-24T12:58:38;11.00;99.90
7686;DHT22;3885;51.474;-2.576;2023-02-24T13:01:11;11.10;99.90
7686;DHT22;3885;51.474;-2.576;2023-02-24T13:03:52;11.20;99.90
7686;DHT22;3885;51.474;-2.576;2023-02-24T13:06:28;11.30;99.90
7686;DHT22;3885;51.474;-2.576;2023-02-24T13:09:04;11.30;99.90
7686;DHT22;3885;51.474;-2.576;2023-02-24T13:11:40;11.40;99.90
7686;DHT22;3885;51.474;-2.576;2023-02-24T13:14:15;11.40;99.90
7686;DHT22;3885;51.474;-2.576;2023-02-24T13:16:42;11.40;99.90
7686;DHT22;3885;51.474;-2.576;2023-02-24T13:21:55;11.50;99.90
7686;DHT22;3885;51.474;-2.576;2023-02-24T13:24:24;11.50;99.90
7686;DHT22;3885;51.474;-2.576;2023-02-24T13:27:02;11.40;99.90
7686;DHT22;3885;51.474;-2.576;2023-02-24T13:29:29;11.40;99.90
7686;DHT22;3885;51.474;-2.576;2023-02-24T13:31:56;11.40;99.90
7686;DHT22;3885;51.474;-2.576;2023-02-24T13:34:33;11.40;99.90
7686;DHT22;3885;51.474;-2.576;2023-02-24T13:37:07;11.50;99.90
7686;DHT22;3885;51.474;-2.576;2023-02-24T13:39:37;11.50;99.90
7686;DHT22;3885;51.474;-2.576;2023-02-24T13:42:20;11.60;99.90
7686;DHT22;3885;51.474;-2.576;2023-02-24T13:44:48;11.70;99.90
7686;DHT22;3885;51.474;-2.576;2023-02-24T13:50:34;11.70;99.90
7686;DHT22;3885;51.474;-2.576;2023-02-24T13:53:19;11.60;99.90
7686;DHT22;3885;51.474;-2.576;2023-02-24T13:56:02;11.50;99.90
7686;DHT22;3885;51.474;-2.576;2023-02-24T14:01:09;11.50;99.90
7686;DHT22;3885;51.474;-2.576;2023-02-24T14:03:39;11.50;99.90
7686;DHT22;3885;51.474;-2.576;2023-02-24T14:06:13;11.40;99.90
7686;DHT22;3885;51.474;-2.576;2023-02-24T14:11:14;11.30;99.90
7686;DHT22;3885;51.474;-2.576;2023-02-24T14:13:44;11.40;99.90
7686;DHT22;3885;51.474;-2.576;2023-02-24T14:16:16;11.20;99.90
7686;DHT22;3885;51.474;-2.576;2023-02-24T14:18:51;11.10;99.90
7686;DHT22;3885;51.474;-2.576;2023-02-24T14:21:20;11.10;99.90
7686;DHT22;3885;51.474;-2.576;2023-02-24T14:23:54;11.00;99.90
7686;DHT22;3885;51.474;-2.576;2023-02-24T14:26:23;10.90;99.90
7686;DHT22;3885;51.474;-2.576;2023-02-24T14:28:54;10.90;99.90
7686;DHT22;3885;51.474;-2.576;2023-02-24T14:31:22;11.00;99.90
7686;DHT22;3885;51.474;-2.576;2023-02-24T14:33:55;10.90;99.90
7686;DHT22;3885;51.474;-2.576;2023-02-24T14:36:26;10.90;99.90
7686;DHT22;3885;51.474;-2.576;2023-02-24T14:39:05;11.00;99.90
7686;DHT22;3885;51.474;-2.576;2023-02-24T14:41:35;11.00;99.90
7686;DHT22;3885;51.474;-2.576;2023-02-24T14:44:16;11.00;99.90
7686;DHT22;3885;51.474;-2.576;2023-02-24T14:46:49;11.00;99.90
7686;DHT22;3885;51.474;-2.576;2023-02-24T14:49:19;11.00;99.90
7686;DHT22;3885;51.474;-2.576;2023-02-24T14:51:48;11.20;99.90
7686;DHT22;3885;51.474;-2.576;2023-02-24T14:57:01;11.10;99.90
7686;DHT22;3885;51.474;-2.576;2023-02-24T14:59:30;11.10;99.90
7686;DHT22;3885;51.474;-2.576;2023-02-24T15:01:59;11.00;99.90
7686;DHT22;3885;51.474;-2.576;2023-02-24T15:07:01;11.00;99.90
7686;DHT22;3885;51.474;-2.576;2023-02-24T15:09:33;11.10;99.90
7686;DHT22;3885;51.474;-2.576;2023-02-24T15:12:10;11.20;99.90
7686;DHT22;3885;51.474;-2.576;2023-02-24T15:14:39;11.20;99.90
7686;DHT22;3885;51.474;-2.576;2023-02-24T15:17:10;11.20;99.90
7686;DHT22;3885;51.474;-2.576;2023-02-24T15:19:41;11.20;99.90
7686;DHT22;3885;51.474;-2.576;2023-02-24T15:22:20;11.30;99.90
7686;DHT22;3885;51.474;-2.576;2023-02-24T15:24:48;11.30;99.90
7686;DHT22;3885;51.474;-2.576;2023-02-24T15:27:22;11.30;99.90
7686;DHT22;3885;51.474;-2.576;2023-02-24T15:29:58;11.20;99.90
7686;DHT22;3885;51.474;-2.576;2023-02-24T15:32:28;11.30;99.90
7686;DHT22;3885;51.474;-2.576;2023-02-24T15:34:56;11.30;99.90
7686;DHT22;3885;51.474;-2.576;2023-02-24T15:37:25;11.30;99.90
7686;DHT22;3885;51.474;-2.576;2023-02-24T15:40:02;11.40;99.90
7686;DHT22;3885;51.474;-2.576;2023-02-24T15:47:29;11.40;99.90
7686;DHT22;3885;51.474;-2.576;2023-02-24T15:49:57;11.40;99.90
7686;DHT22;3885;51.474;-2.576;2023-02-24T15:52:25;11.40;99.90
7686;DHT22;3885;51.474;-2.576;2023-02-24T15:54:53;11.40;99.90
7686;DHT22;3885;51.474;-2.576;2023-02-24T15:57:22;11.40;99.90
7686;DHT22;3885;51.474;-2.576;2023-02-24T15:59:51;11.40;99.90
7686;DHT22;3885;51.474;-2.576;2023-02-24T16:02:20;11.30;99.90
7686;DHT22;3885;51.474;-2.576;2023-02-24T16:04:48;11.20;99.90
7686;DHT22;3885;51.474;-2.576;2023-02-24T16:07:18;11.10;99.90
7686;DHT22;3885;51.474;-2.576;2023-02-24T16:09:46;11.00;99.90
7686;DHT22;3885;51.474;-2.576;2023-02-24T16:17:19;11.00;99.90
7686;DHT22;3885;51.474;-2.576;2023-02-24T16:22:14;10.70;99.90
7686;DHT22;3885;51.474;-2.576;2023-02-24T16:27:14;10.50;99.90
7686;DHT22;3885;51.474;-2.576;2023-02-24T16:29:41;10.50;99.90
7686;DHT22;3885;51.474;-2.576;2023-02-24T16:32:10;10.40;99.90
7686;DHT22;3885;51.474;-2.576;2023-02-24T16:34:38;10.40;99.90
7686;DHT22;3885;51.474;-2.576;2023-02-24T16:37:16;10.30;99.90
7686;DHT22;3885;51.474;-2.576;2023-02-24T16:42:11;10.20;99.90
7686;DHT22;3885;51.474;-2.576;2023-02-24T16:44:38;10.20;99.90
7686;DHT22;3885;51.474;-2.576;2023-02-24T16:49:33;10.20;99.90
7686;DHT22;3885;51.474;-2.576;2023-02-24T16:54:29;10.00;99.90
7686;DHT22;3885;51.474;-2.576;2023-02-24T16:56:56;10.00;99.90
7686;DHT22;3885;51.474;-2.576;2023-02-24T16:59:25;9.90;99.90
7686;DHT22;3885;51.474;-2.576;2023-02-24T17:01:52;9.80;99.90
7686;DHT22;3885;51.474;-2.576;2023-02-24T17:04:20;9.70;99.90
7686;DHT22;3885;51.474;-2.576;2023-02-24T17:11:45;9.60;99.90
7686;DHT22;3885;51.474;-2.576;2023-02-24T17:14:15;9.70;99.90
7686;DHT22;3885;51.474;-2.576;2023-02-24T17:19:10;9.60;99.90
7686;DHT22;3885;51.474;-2.576;2023-02-24T17:26:41;9.70;99.90
7686;DHT22;3885;51.474;-2.576;2023-02-24T17:29:08;9.60;99.90
7686;DHT22;3885;51.474;-2.576;2023-02-24T17:31:35;9.50;99.90
7686;DHT22;3885;51.474;-2.576;2023-02-24T17:38:57;9.50;99.90
7686;DHT22;3885;51.474;-2.576;2023-02-24T17:43:53;9.50;99.90
7686;DHT22;3885;51.474;-2.576;2023-02-24T17:48:47;9.50;99.90
7686;DHT22;3885;51.474;-2.576;2023-02-24T17:51:15;9.50;99.90
7686;DHT22;3885;51.474;-2.576;2023-02-24T17:53:42;9.50;99.90
7686;DHT22;3885;51.474;-2.576;2023-02-24T17:56:10;9.40;99.90
7686;DHT22;3885;51.474;-2.576;2023-02-24T17:58:37;9.40;99.90
7686;DHT22;3885;51.474;-2.576;2023-02-24T18:01:06;9.30;99.90
7686;DHT22;3885;51.474;-2.576;2023-02-24T18:03:34;9.20;99.90
7686;DHT22;3885;51.474;-2.576;2023-02-24T18:06:02;9.20;99.90
7686;DHT22;3885;51.474;-2.576;2023-02-24T18:08:32;9.10;99.90
7686;DHT22;3885;51.474;-2.576;2023-02-24T18:10:59;9.10;99.90
7686;DHT22;3885;51.474;-2.576;2023-02-24T18:13:26;9.10;99.90
7686;DHT22;3885;51.474;-2.576;2023-02-24T18:15:54;9.00;99.90
7686;DHT22;3885;51.474;-2.576;2023-02-24T18:18:22;9.00;99.90
7686;DHT22;3885;51.474;-2.576;2023-02-24T18:20:49;9.00;99.90
7686;DHT22;3885;51.474;-2.576;2023-02-24T18:23:16;9.00;99.90
7686;DHT22;3885;51.474;-2.576;2023-02-24T18:28:10;9.00;99.90
7686;DHT22;3885;51.474;-2.576;2023-02-24T18:35:33;8.90;99.90
7686;DHT22;3885;51.474;-2.576;2023-02-24T18:38:00;8.90;99.90
7686;DHT22;3885;51.474;-2.576;2023-02-24T18:40:28;8.90;99.90
7686;DHT22;3885;51.474;-2.576;2023-02-24T18:42:55;8.80;99.90
7686;DHT22;3885;51.474;-2.576;2023-02-24T18:45:22;8.80;99.90
7686;DHT22;3885;51.474;-2.576;2023-02-24T18:47:50;8.80;99.90
7686;DHT22;3885;51.474;-2.576;2023-02-24T18:52:46;8.80;99.90
7686;DHT22;3885;51.474;-2.576;2023-02-24T18:55:13;8.70;99.90
7686;DHT22;3885;51.474;-2.576;2023-02-24T18:57:40;8.70;99.90
7686;DHT22;3885;51.474;-2.576;2023-02-24T19:05:02;8.60;99.90
7686;DHT22;3885;51.474;-2.576;2023-02-24T19:12:25;8.60;99.90
7686;DHT22;3885;51.474;-2.576;2023-02-24T19:22:14;8.50;99.90
7686;DHT22;3885;51.474;-2.576;2023-02-24T19:24:40;8.40;99.90
7686;DHT22;3885;51.474;-2.576;2023-02-24T19:27:09;8.40;99.90
7686;DHT22;3885;51.474;-2.576;2023-02-24T19:29:36;8.40;99.90
7686;DHT22;3885;51.474;-2.576;2023-02-24T19:36:57;8.20;99.90
7686;DHT22;3885;51.474;-2.576;2023-02-24T19:39:24;8.10;99.90
7686;DHT22;3885;51.474;-2.576;2023-02-24T19:41:51;8.10;99.90
7686;DHT22;3885;51.474;-2.576;2023-02-24T19:44:20;8.00;99.90
7686;DHT22;3885;51.474;-2.576;2023-02-24T19:46:47;8.00;99.90
7686;DHT22;3885;51.474;-2.576;2023-02-24T19:49:14;7.90;99.90
7686;DHT22;3885;51.474;-2.576;2023-02-24T19:51:41;7.80;99.90
7686;DHT22;3885;51.474;-2.576;2023-02-24T19:54:11;7.70;99.90
7686;DHT22;3885;51.474;-2.576;2023-02-24T19:56:38;7.70;99.90
7686;DHT22;3885;51.474;-2.576;2023-02-24T19:59:07;7.70;99.90
7686;DHT22;3885;51.474;-2.576;2023-02-24T20:01:35;7.60;99.90
7686;DHT22;3885;51.474;-2.576;2023-02-24T20:04:03;7.60;99.90
7686;DHT22;3885;51.474;-2.576;2023-02-24T20:06:32;7.50;99.90
7686;DHT22;3885;51.474;-2.576;2023-02-24T20:09:00;7.50;99.90
7686;DHT22;3885;51.474;-2.576;2023-02-24T20:11:27;7.50;99.90
7686;DHT22;3885;51.474;-2.576;2023-02-24T20:13:55;7.40;99.90
7686;DHT22;3885;51.474;-2.576;2023-02-24T20:16:22;7.40;99.90
7686;DHT22;3885;51.474;-2.576;2023-02-24T20:18:53;7.30;99.90
7686;DHT22;3885;51.474;-2.576;2023-02-24T20:21:20;7.20;99.90
7686;DHT22;3885;51.474;-2.576;2023-02-24T20:23:47;7.20;99.90
7686;DHT22;3885;51.474;-2.576;2023-02-24T20:26:14;7.10;99.90
7686;DHT22;3885;51.474;-2.576;2023-02-24T20:28:41;7.10;99.90
7686;DHT22;3885;51.474;-2.576;2023-02-24T20:33:38;7.00;99.90